sensor_id;sensor_type;location;lat;lon;timestamp;P1;durP1;ratioP1;P2;durP2;ratioP2
4466;SDS011;2246;42.664;23.278;2022-08-23T00:01:49;26.00;;;16.35;;
4466;SDS011;2246;42.664;23.278;2022-08-23T00:04:17;29.25;;;17.67;;
4466;SDS011;2246;42.664;23.278;2022-08-23T00:06:44;27.15;;;17.10;;
4466;SDS011;2246;42.664;23.278;2022-08-23T00:09:11;26.08;;;16.23;;
4466;SDS011;2246;42.664;23.278;2022-08-23T00:11:42;32.88;;;17.13;;
4466;SDS011;2246;42.664;23.278;2022-08-23T00:14:16;29.60;;;17.50;;
4466;SDS011;2246;42.664;23.278;2022-08-23T00:16:43;25.25;;;18.48;;
4466;SDS011;2246;42.664;23.278;2022-08-23T00:19:10;25.90;;;17.85;;
4466;SDS011;2246;42.664;23.278;2022-08-23T00:21:37;30.13;;;18.10;;
4466;SDS011;2246;42.664;23.278;2022-08-23T00:24:04;27.20;;;17.27;;
4466;SDS011;2246;42.664;23.278;2022-08-23T00:29:21;29.38;;;18.58;;
4466;SDS011;2246;42.664;23.278;2022-08-23T00:31:47;27.98;;;18.10;;
4466;SDS011;2246;42.664;23.278;2022-08-23T00:34:14;31.75;;;18.63;;
4466;SDS011;2246;42.664;23.278;2022-08-23T00:36:40;35.00;;;18.77;;
4466;SDS011;2246;42.664;23.278;2022-08-23T00:39:09;25.88;;;18.27;;
4466;SDS011;2246;42.664;23.278;2022-08-23T00:41:35;27.83;;;18.42;;
4466;SDS011;2246;42.664;23.278;2022-08-23T00:44:02;27.38;;;18.73;;
4466;SDS011;2246;42.664;23.278;2022-08-23T00:46:54;29.35;;;18.20;;
4466;SDS011;2246;42.664;23.278;2022-08-23T00:49:39;34.95;;;18.65;;
4466;SDS011;2246;42.664;23.278;2022-08-23T00:52:10;32.10;;;17.35;;
4466;SDS011;2246;42.664;23.278;2022-08-23T00:54:38;28.10;;;16.50;;
4466;SDS011;2246;42.664;23.278;2022-08-23T00:57:07;24.90;;;16.77;;
4466;SDS011;2246;42.664;23.278;2022-08-23T00:59:33;31.42;;;17.42;;
4466;SDS011;2246;42.664;23.278;2022-08-23T01:01:59;23.50;;;17.38;;
4466;SDS011;2246;42.664;23.278;2022-08-23T01:04:26;29.92;;;16.58;;
4466;SDS011;2246;42.664;23.278;2022-08-23T01:07:07;30.90;;;17.80;;
4466;SDS011;2246;42.664;23.278;2022-08-23T01:09:34;24.85;;;17.30;;
4466;SDS011;2246;42.664;23.278;2022-08-23T01:12:08;27.65;;;18.35;;
4466;SDS011;2246;42.664;23.278;2022-08-23T01:15:03;40.05;;;18.20;;
4466;SDS011;2246;42.664;23.278;2022-08-23T01:17:37;29.65;;;18.27;;
4466;SDS011;2246;42.664;23.278;2022-08-23T01:20:09;28.70;;;19.25;;
4466;SDS011;2246;42.664;23.278;2022-08-23T01:22:37;30.77;;;19.05;;
4466;SDS011;2246;42.664;23.278;2022-08-23T01:25:06;24.45;;;18.13;;
4466;SDS011;2246;42.664;23.278;2022-08-23T01:29:59;28.42;;;19.30;;
4466;SDS011;2246;42.664;23.278;2022-08-23T01:32:25;27.65;;;19.60;;
4466;SDS011;2246;42.664;23.278;2022-08-23T01:34:53;32.20;;;20.33;;
4466;SDS011;2246;42.664;23.278;2022-08-23T01:37:19;30.17;;;18.92;;
4466;SDS011;2246;42.664;23.278;2022-08-23T01:39:46;32.25;;;18.17;;
4466;SDS011;2246;42.664;23.278;2022-08-23T01:42:12;30.20;;;18.60;;
4466;SDS011;2246;42.664;23.278;2022-08-23T01:44:38;32.88;;;17.58;;
4466;SDS011;2246;42.664;23.278;2022-08-23T01:47:04;33.08;;;20.00;;
4466;SDS011;2246;42.664;23.278;2022-08-23T01:49:32;29.98;;;19.58;;
4466;SDS011;2246;42.664;23.278;2022-08-23T01:51:58;25.17;;;17.25;;
4466;SDS011;2246;42.664;23.278;2022-08-23T01:54:24;25.30;;;17.08;;
4466;SDS011;2246;42.664;23.278;2022-08-23T01:56:50;45.30;;;30.17;;
4466;SDS011;2246;42.664;23.278;2022-08-23T01:59:16;26.35;;;18.25;;
4466;SDS011;2246;42.664;23.278;2022-08-23T02:01:43;26.05;;;18.63;;
4466;SDS011;2246;42.664;23.278;2022-08-23T02:04:09;33.15;;;21.40;;
4466;SDS011;2246;42.664;23.278;2022-08-23T02:06:35;27.48;;;18.38;;
4466;SDS011;2246;42.664;23.278;2022-08-23T02:09:01;29.48;;;17.65;;
4466;SDS011;2246;42.664;23.278;2022-08-23T02:11:38;26.65;;;17.98;;
4466;SDS011;2246;42.664;23.278;2022-08-23T02:14:06;26.45;;;17.77;;
4466;SDS011;2246;42.664;23.278;2022-08-23T02:16:34;33.88;;;19.60;;
4466;SDS011;2246;42.664;23.278;2022-08-23T02:19:02;27.85;;;17.70;;
4466;SDS011;2246;42.664;23.278;2022-08-23T02:21:28;28.52;;;18.25;;
4466;SDS011;2246;42.664;23.278;2022-08-23T02:23:58;27.98;;;17.58;;
4466;SDS011;2246;42.664;23.278;2022-08-23T02:26:24;22.67;;;16.50;;
4466;SDS011;2246;42.664;23.278;2022-08-23T02:28:51;22.95;;;16.42;;
4466;SDS011;2246;42.664;23.278;2022-08-23T02:31:18;21.87;;;15.43;;
4466;SDS011;2246;42.664;23.278;2022-08-23T02:33:44;23.60;;;15.25;;
4466;SDS011;2246;42.664;23.278;2022-08-23T02:36:10;22.38;;;13.73;;
4466;SDS011;2246;42.664;23.278;2022-08-23T02:38:37;19.55;;;14.15;;
4466;SDS011;2246;42.664;23.278;2022-08-23T02:41:03;18.15;;;10.95;;
4466;SDS011;2246;42.664;23.278;2022-08-23T02:43:29;15.32;;;11.15;;
4466;SDS011;2246;42.664;23.278;2022-08-23T02:45:55;18.67;;;10.30;;
4466;SDS011;2246;42.664;23.278;2022-08-23T02:48:21;16.40;;;10.70;;
4466;SDS011;2246;42.664;23.278;2022-08-23T02:50:47;17.10;;;10.73;;
4466;SDS011;2246;42.664;23.278;2022-08-23T02:53:14;17.17;;;10.55;;
4466;SDS011;2246;42.664;23.278;2022-08-23T02:55:45;14.75;;;10.73;;
4466;SDS011;2246;42.664;23.278;2022-08-23T02:58:11;14.68;;;10.98;;
4466;SDS011;2246;42.664;23.278;2022-08-23T03:00:37;16.80;;;11.18;;
4466;SDS011;2246;42.664;23.278;2022-08-23T03:03:04;17.52;;;11.25;;
4466;SDS011;2246;42.664;23.278;2022-08-23T03:05:30;13.32;;;10.60;;
4466;SDS011;2246;42.664;23.278;2022-08-23T03:07:57;15.43;;;10.45;;
4466;SDS011;2246;42.664;23.278;2022-08-23T03:10:23;13.63;;;9.50;;
4466;SDS011;2246;42.664;23.278;2022-08-23T03:12:49;15.02;;;10.02;;
4466;SDS011;2246;42.664;23.278;2022-08-23T03:15:16;15.25;;;9.82;;
4466;SDS011;2246;42.664;23.278;2022-08-23T03:17:42;11.35;;;9.85;;
4466;SDS011;2246;42.664;23.278;2022-08-23T03:20:08;15.93;;;10.30;;
4466;SDS011;2246;42.664;23.278;2022-08-23T03:22:35;17.38;;;10.30;;
4466;SDS011;2246;42.664;23.278;2022-08-23T03:25:02;12.15;;;8.70;;
4466;SDS011;2246;42.664;23.278;2022-08-23T03:27:28;14.75;;;9.13;;
4466;SDS011;2246;42.664;23.278;2022-08-23T03:29:55;12.48;;;10.00;;
4466;SDS011;2246;42.664;23.278;2022-08-23T03:32:21;14.50;;;10.18;;
4466;SDS011;2246;42.664;23.278;2022-08-23T03:34:47;17.38;;;9.77;;
4466;SDS011;2246;42.664;23.278;2022-08-23T03:37:13;17.20;;;10.98;;
4466;SDS011;2246;42.664;23.278;2022-08-23T03:39:40;21.08;;;11.93;;
4466;SDS011;2246;42.664;23.278;2022-08-23T03:42:06;23.25;;;12.52;;
4466;SDS011;2246;42.664;23.278;2022-08-23T03:44:32;19.85;;;13.43;;
4466;SDS011;2246;42.664;23.278;2022-08-23T03:46:58;32.28;;;19.70;;
4466;SDS011;2246;42.664;23.278;2022-08-23T03:49:26;29.00;;;18.35;;
4466;SDS011;2246;42.664;23.278;2022-08-23T03:51:52;28.40;;;17.80;;
4466;SDS011;2246;42.664;23.278;2022-08-23T03:54:18;25.65;;;16.05;;
4466;SDS011;2246;42.664;23.278;2022-08-23T03:56:52;22.58;;;14.85;;
4466;SDS011;2246;42.664;23.278;2022-08-23T03:59:18;22.55;;;15.88;;
4466;SDS011;2246;42.664;23.278;2022-08-23T04:01:44;22.90;;;16.02;;
4466;SDS011;2246;42.664;23.278;2022-08-23T04:04:10;26.63;;;17.40;;
4466;SDS011;2246;42.664;23.278;2022-08-23T04:06:37;34.63;;;16.95;;
4466;SDS011;2246;42.664;23.278;2022-08-23T04:09:03;24.48;;;17.58;;
4466;SDS011;2246;42.664;23.278;2022-08-23T04:11:29;26.13;;;15.45;;
4466;SDS011;2246;42.664;23.278;2022-08-23T04:13:55;32.47;;;17.90;;
4466;SDS011;2246;42.664;23.278;2022-08-23T04:16:21;31.83;;;18.98;;
4466;SDS011;2246;42.664;23.278;2022-08-23T04:18:47;26.50;;;18.13;;
4466;SDS011;2246;42.664;23.278;2022-08-23T04:21:15;30.60;;;17.73;;
4466;SDS011;2246;42.664;23.278;2022-08-23T04:23:41;31.92;;;20.00;;
4466;SDS011;2246;42.664;23.278;2022-08-23T04:26:08;34.20;;;19.40;;
4466;SDS011;2246;42.664;23.278;2022-08-23T04:28:34;30.70;;;17.23;;
4466;SDS011;2246;42.664;23.278;2022-08-23T04:31:01;29.55;;;17.58;;
4466;SDS011;2246;42.664;23.278;2022-08-23T04:35:56;25.10;;;17.27;;
4466;SDS011;2246;42.664;23.278;2022-08-23T04:38:22;29.60;;;16.23;;
4466;SDS011;2246;42.664;23.278;2022-08-23T04:40:48;24.48;;;15.35;;
4466;SDS011;2246;42.664;23.278;2022-08-23T04:43:33;27.17;;;17.55;;
4466;SDS011;2246;42.664;23.278;2022-08-23T04:45:59;27.70;;;16.00;;
4466;SDS011;2246;42.664;23.278;2022-08-23T04:48:25;29.05;;;16.88;;
4466;SDS011;2246;42.664;23.278;2022-08-23T04:50:52;29.88;;;17.08;;
4466;SDS011;2246;42.664;23.278;2022-08-23T04:53:18;34.08;;;17.63;;
4466;SDS011;2246;42.664;23.278;2022-08-23T04:55:44;31.95;;;19.75;;
4466;SDS011;2246;42.664;23.278;2022-08-23T04:58:11;36.90;;;22.25;;
4466;SDS011;2246;42.664;23.278;2022-08-23T05:00:38;39.88;;;24.45;;
4466;SDS011;2246;42.664;23.278;2022-08-23T05:03:04;39.50;;;24.80;;
4466;SDS011;2246;42.664;23.278;2022-08-23T05:05:30;39.78;;;26.20;;
4466;SDS011;2246;42.664;23.278;2022-08-23T05:07:57;52.20;;;26.53;;
4466;SDS011;2246;42.664;23.278;2022-08-23T05:10:23;45.33;;;28.58;;
4466;SDS011;2246;42.664;23.278;2022-08-23T05:12:49;42.08;;;26.52;;
4466;SDS011;2246;42.664;23.278;2022-08-23T05:15:16;46.63;;;26.70;;
4466;SDS011;2246;42.664;23.278;2022-08-23T05:17:42;51.75;;;27.95;;
4466;SDS011;2246;42.664;23.278;2022-08-23T05:20:08;42.53;;;26.98;;
4466;SDS011;2246;42.664;23.278;2022-08-23T05:22:35;46.05;;;29.25;;
4466;SDS011;2246;42.664;23.278;2022-08-23T05:25:05;46.28;;;28.67;;
4466;SDS011;2246;42.664;23.278;2022-08-23T05:27:31;45.03;;;28.52;;
4466;SDS011;2246;42.664;23.278;2022-08-23T05:29:57;43.70;;;29.40;;
4466;SDS011;2246;42.664;23.278;2022-08-23T05:32:23;42.25;;;29.02;;
4466;SDS011;2246;42.664;23.278;2022-08-23T05:34:49;51.47;;;31.35;;
4466;SDS011;2246;42.664;23.278;2022-08-23T05:37:16;44.90;;;29.67;;
4466;SDS011;2246;42.664;23.278;2022-08-23T05:39:42;36.67;;;24.70;;
4466;SDS011;2246;42.664;23.278;2022-08-23T05:42:09;33.63;;;23.70;;
4466;SDS011;2246;42.664;23.278;2022-08-23T05:44:36;32.38;;;22.65;;
4466;SDS011;2246;42.664;23.278;2022-08-23T05:47:03;31.83;;;21.00;;
4466;SDS011;2246;42.664;23.278;2022-08-23T05:49:30;38.35;;;22.45;;
4466;SDS011;2246;42.664;23.278;2022-08-23T05:51:56;31.58;;;22.98;;
4466;SDS011;2246;42.664;23.278;2022-08-23T05:54:23;35.33;;;22.02;;
4466;SDS011;2246;42.664;23.278;2022-08-23T05:56:49;38.00;;;21.90;;
4466;SDS011;2246;42.664;23.278;2022-08-23T05:59:15;34.97;;;21.08;;
4466;SDS011;2246;42.664;23.278;2022-08-23T06:01:43;35.38;;;21.63;;
4466;SDS011;2246;42.664;23.278;2022-08-23T06:04:10;31.92;;;20.85;;
4466;SDS011;2246;42.664;23.278;2022-08-23T06:06:36;29.05;;;20.50;;
4466;SDS011;2246;42.664;23.278;2022-08-23T06:09:04;35.50;;;21.60;;
4466;SDS011;2246;42.664;23.278;2022-08-23T06:11:30;32.33;;;22.30;;
4466;SDS011;2246;42.664;23.278;2022-08-23T06:13:58;26.92;;;19.35;;
4466;SDS011;2246;42.664;23.278;2022-08-23T06:16:26;31.25;;;20.35;;
4466;SDS011;2246;42.664;23.278;2022-08-23T06:18:53;29.33;;;19.73;;
4466;SDS011;2246;42.664;23.278;2022-08-23T06:21:19;35.47;;;20.60;;
4466;SDS011;2246;42.664;23.278;2022-08-23T06:23:45;31.17;;;19.45;;
4466;SDS011;2246;42.664;23.278;2022-08-23T06:26:14;32.58;;;20.70;;
4466;SDS011;2246;42.664;23.278;2022-08-23T06:28:41;39.67;;;24.40;;
4466;SDS011;2246;42.664;23.278;2022-08-23T06:31:08;35.10;;;19.75;;
4466;SDS011;2246;42.664;23.278;2022-08-23T06:33:35;34.88;;;22.52;;
4466;SDS011;2246;42.664;23.278;2022-08-23T06:36:09;28.75;;;17.40;;
4466;SDS011;2246;42.664;23.278;2022-08-23T06:38:37;29.25;;;16.95;;
4466;SDS011;2246;42.664;23.278;2022-08-23T06:41:05;24.38;;;15.63;;
4466;SDS011;2246;42.664;23.278;2022-08-23T06:43:31;24.60;;;15.82;;
4466;SDS011;2246;42.664;23.278;2022-08-23T06:46:08;28.75;;;16.20;;
4466;SDS011;2246;42.664;23.278;2022-08-23T06:48:35;24.15;;;14.90;;
4466;SDS011;2246;42.664;23.278;2022-08-23T06:53:28;25.63;;;14.00;;
4466;SDS011;2246;42.664;23.278;2022-08-23T06:55:55;21.13;;;13.88;;
4466;SDS011;2246;42.664;23.278;2022-08-23T06:58:24;22.05;;;15.13;;
4466;SDS011;2246;42.664;23.278;2022-08-23T07:00:50;20.67;;;14.82;;
4466;SDS011;2246;42.664;23.278;2022-08-23T07:03:16;29.05;;;14.40;;
4466;SDS011;2246;42.664;23.278;2022-08-23T07:05:42;25.13;;;15.05;;
4466;SDS011;2246;42.664;23.278;2022-08-23T07:08:08;24.00;;;15.15;;
4466;SDS011;2246;42.664;23.278;2022-08-23T07:10:34;24.42;;;15.50;;
4466;SDS011;2246;42.664;23.278;2022-08-23T07:13:01;22.02;;;14.43;;
4466;SDS011;2246;42.664;23.278;2022-08-23T07:15:27;27.58;;;15.15;;
4466;SDS011;2246;42.664;23.278;2022-08-23T07:17:53;20.20;;;13.93;;
4466;SDS011;2246;42.664;23.278;2022-08-23T07:20:20;22.00;;;14.43;;
4466;SDS011;2246;42.664;23.278;2022-08-23T07:22:46;24.58;;;14.80;;
4466;SDS011;2246;42.664;23.278;2022-08-23T07:25:13;24.42;;;14.93;;
4466;SDS011;2246;42.664;23.278;2022-08-23T07:27:39;18.55;;;14.23;;
4466;SDS011;2246;42.664;23.278;2022-08-23T07:30:05;22.95;;;15.18;;
4466;SDS011;2246;42.664;23.278;2022-08-23T07:32:32;24.70;;;14.77;;
4466;SDS011;2246;42.664;23.278;2022-08-23T07:34:58;18.95;;;14.00;;
4466;SDS011;2246;42.664;23.278;2022-08-23T07:37:25;23.27;;;15.23;;
4466;SDS011;2246;42.664;23.278;2022-08-23T07:39:52;24.52;;;15.00;;
4466;SDS011;2246;42.664;23.278;2022-08-23T07:42:18;18.83;;;13.43;;
4466;SDS011;2246;42.664;23.278;2022-08-23T07:44:44;25.17;;;15.57;;
4466;SDS011;2246;42.664;23.278;2022-08-23T07:47:11;27.17;;;15.10;;
4466;SDS011;2246;42.664;23.278;2022-08-23T07:49:37;29.85;;;14.95;;
4466;SDS011;2246;42.664;23.278;2022-08-23T07:52:03;21.15;;;15.32;;
4466;SDS011;2246;42.664;23.278;2022-08-23T07:54:29;24.13;;;14.55;;
4466;SDS011;2246;42.664;23.278;2022-08-23T07:56:55;24.70;;;16.60;;
4466;SDS011;2246;42.664;23.278;2022-08-23T07:59:21;25.00;;;15.60;;
4466;SDS011;2246;42.664;23.278;2022-08-23T08:01:47;23.20;;;16.05;;
4466;SDS011;2246;42.664;23.278;2022-08-23T08:04:14;26.40;;;15.80;;
4466;SDS011;2246;42.664;23.278;2022-08-23T08:06:41;23.90;;;14.55;;
4466;SDS011;2246;42.664;23.278;2022-08-23T08:09:10;25.85;;;15.70;;
4466;SDS011;2246;42.664;23.278;2022-08-23T08:11:39;24.70;;;16.03;;
4466;SDS011;2246;42.664;23.278;2022-08-23T08:14:06;21.75;;;15.27;;
4466;SDS011;2246;42.664;23.278;2022-08-23T08:16:35;21.02;;;16.25;;
4466;SDS011;2246;42.664;23.278;2022-08-23T08:21:27;27.60;;;16.80;;
4466;SDS011;2246;42.664;23.278;2022-08-23T08:23:54;22.27;;;16.70;;
4466;SDS011;2246;42.664;23.278;2022-08-23T08:26:21;27.10;;;16.33;;
4466;SDS011;2246;42.664;23.278;2022-08-23T08:28:48;26.70;;;16.45;;
4466;SDS011;2246;42.664;23.278;2022-08-23T08:31:14;26.00;;;15.95;;
4466;SDS011;2246;42.664;23.278;2022-08-23T08:33:40;27.42;;;15.70;;
4466;SDS011;2246;42.664;23.278;2022-08-23T08:36:07;18.80;;;14.95;;
4466;SDS011;2246;42.664;23.278;2022-08-23T08:38:36;21.13;;;15.35;;
4466;SDS011;2246;42.664;23.278;2022-08-23T08:41:08;22.98;;;15.70;;
4466;SDS011;2246;42.664;23.278;2022-08-23T08:49:12;25.67;;;16.35;;
4466;SDS011;2246;42.664;23.278;2022-08-23T08:51:48;26.13;;;16.17;;
4466;SDS011;2246;42.664;23.278;2022-08-23T08:54:17;23.00;;;15.13;;
4466;SDS011;2246;42.664;23.278;2022-08-23T08:56:46;24.58;;;15.10;;
4466;SDS011;2246;42.664;23.278;2022-08-23T08:59:13;22.58;;;15.10;;
4466;SDS011;2246;42.664;23.278;2022-08-23T09:01:43;23.30;;;15.68;;
4466;SDS011;2246;42.664;23.278;2022-08-23T09:04:11;24.88;;;15.38;;
4466;SDS011;2246;42.664;23.278;2022-08-23T09:06:43;27.65;;;14.68;;
4466;SDS011;2246;42.664;23.278;2022-08-23T09:09:23;23.35;;;16.50;;
4466;SDS011;2246;42.664;23.278;2022-08-23T09:17:09;22.85;;;15.30;;
4466;SDS011;2246;42.664;23.278;2022-08-23T09:19:38;23.92;;;13.52;;
4466;SDS011;2246;42.664;23.278;2022-08-23T09:22:08;24.52;;;15.48;;
4466;SDS011;2246;42.664;23.278;2022-08-23T09:24:37;30.33;;;14.32;;
4466;SDS011;2246;42.664;23.278;2022-08-23T09:27:03;23.92;;;14.63;;
4466;SDS011;2246;42.664;23.278;2022-08-23T09:29:31;22.60;;;15.25;;
4466;SDS011;2246;42.664;23.278;2022-08-23T09:39:35;20.77;;;12.68;;
4466;SDS011;2246;42.664;23.278;2022-08-23T09:44:31;18.63;;;12.88;;
4466;SDS011;2246;42.664;23.278;2022-08-23T09:47:05;27.25;;;13.43;;
4466;SDS011;2246;42.664;23.278;2022-08-23T09:49:31;21.15;;;13.80;;
4466;SDS011;2246;42.664;23.278;2022-08-23T09:52:08;23.85;;;14.15;;
4466;SDS011;2246;42.664;23.278;2022-08-23T09:54:36;19.17;;;14.43;;
4466;SDS011;2246;42.664;23.278;2022-08-23T09:57:06;24.58;;;13.32;;
4466;SDS011;2246;42.664;23.278;2022-08-23T09:59:40;22.73;;;14.43;;
4466;SDS011;2246;42.664;23.278;2022-08-23T10:12:43;19.52;;;13.40;;
4466;SDS011;2246;42.664;23.278;2022-08-23T10:15:10;18.40;;;11.82;;
4466;SDS011;2246;42.664;23.278;2022-08-23T10:17:39;19.08;;;12.55;;
4466;SDS011;2246;42.664;23.278;2022-08-23T10:20:16;23.98;;;14.20;;
4466;SDS011;2246;42.664;23.278;2022-08-23T10:25:39;17.98;;;13.43;;
4466;SDS011;2246;42.664;23.278;2022-08-23T10:31:12;18.27;;;10.63;;
4466;SDS011;2246;42.664;23.278;2022-08-23T10:33:46;19.65;;;10.90;;
4466;SDS011;2246;42.664;23.278;2022-08-23T10:39:02;12.25;;;9.73;;
4466;SDS011;2246;42.664;23.278;2022-08-23T10:46:37;18.27;;;10.25;;
4466;SDS011;2246;42.664;23.278;2022-08-23T10:49:04;16.73;;;11.57;;
4466;SDS011;2246;42.664;23.278;2022-08-23T10:51:33;14.10;;;10.45;;
4466;SDS011;2246;42.664;23.278;2022-08-23T10:54:14;11.68;;;9.05;;
4466;SDS011;2246;42.664;23.278;2022-08-23T10:56:42;13.55;;;9.27;;
4466;SDS011;2246;42.664;23.278;2022-08-23T10:59:12;14.38;;;9.10;;
4466;SDS011;2246;42.664;23.278;2022-08-23T11:01:53;14.18;;;9.60;;
4466;SDS011;2246;42.664;23.278;2022-08-23T11:06:52;21.23;;;11.95;;
4466;SDS011;2246;42.664;23.278;2022-08-23T11:11:47;13.88;;;9.75;;
4466;SDS011;2246;42.664;23.278;2022-08-23T11:14:33;14.45;;;9.85;;
4466;SDS011;2246;42.664;23.278;2022-08-23T11:17:04;15.52;;;9.95;;
4466;SDS011;2246;42.664;23.278;2022-08-23T11:19:45;15.32;;;9.73;;
4466;SDS011;2246;42.664;23.278;2022-08-23T11:22:17;16.70;;;10.20;;
4466;SDS011;2246;42.664;23.278;2022-08-23T11:24:54;12.65;;;10.27;;
4466;SDS011;2246;42.664;23.278;2022-08-23T11:29:52;19.52;;;11.20;;
4466;SDS011;2246;42.664;23.278;2022-08-23T11:32:52;15.32;;;10.63;;
4466;SDS011;2246;42.664;23.278;2022-08-23T11:38:10;16.65;;;9.77;;
4466;SDS011;2246;42.664;23.278;2022-08-23T11:43:05;12.50;;;9.70;;
4466;SDS011;2246;42.664;23.278;2022-08-23T11:48:18;17.50;;;8.60;;
4466;SDS011;2246;42.664;23.278;2022-08-23T11:53:21;12.88;;;9.60;;
4466;SDS011;2246;42.664;23.278;2022-08-23T11:56:05;11.80;;;9.30;;
4466;SDS011;2246;42.664;23.278;2022-08-23T12:01:12;17.50;;;10.30;;
4466;SDS011;2246;42.664;23.278;2022-08-23T12:03:53;16.50;;;8.95;;
4466;SDS011;2246;42.664;23.278;2022-08-23T12:06:40;16.95;;;9.95;;
4466;SDS011;2246;42.664;23.278;2022-08-23T12:16:57;24.23;;;10.25;;
4466;SDS011;2246;42.664;23.278;2022-08-23T12:19:31;16.35;;;9.52;;
4466;SDS011;2246;42.664;23.278;2022-08-23T12:22:03;14.52;;;9.23;;
4466;SDS011;2246;42.664;23.278;2022-08-23T12:24:32;17.00;;;9.52;;
4466;SDS011;2246;42.664;23.278;2022-08-23T12:31:57;16.98;;;9.30;;
4466;SDS011;2246;42.664;23.278;2022-08-23T12:39:33;18.65;;;11.30;;
4466;SDS011;2246;42.664;23.278;2022-08-23T12:44:28;14.63;;;9.75;;
4466;SDS011;2246;42.664;23.278;2022-08-23T12:49:25;17.05;;;10.40;;
4466;SDS011;2246;42.664;23.278;2022-08-23T12:51:52;15.40;;;8.10;;
4466;SDS011;2246;42.664;23.278;2022-08-23T12:54:20;17.88;;;6.82;;
4466;SDS011;2246;42.664;23.278;2022-08-23T12:56:47;14.68;;;6.07;;
4466;SDS011;2246;42.664;23.278;2022-08-23T12:59:24;9.30;;;5.30;;
4466;SDS011;2246;42.664;23.278;2022-08-23T13:01:52;6.90;;;4.28;;
4466;SDS011;2246;42.664;23.278;2022-08-23T13:04:18;8.48;;;4.88;;
4466;SDS011;2246;42.664;23.278;2022-08-23T13:09:18;11.63;;;5.10;;
4466;SDS011;2246;42.664;23.278;2022-08-23T13:11:46;13.55;;;5.95;;
4466;SDS011;2246;42.664;23.278;2022-08-23T13:14:24;15.32;;;6.50;;
4466;SDS011;2246;42.664;23.278;2022-08-23T13:16:50;14.15;;;6.65;;
4466;SDS011;2246;42.664;23.278;2022-08-23T13:21:46;13.65;;;6.60;;
4466;SDS011;2246;42.664;23.278;2022-08-23T13:24:26;14.50;;;7.82;;
4466;SDS011;2246;42.664;23.278;2022-08-23T13:26:53;13.75;;;7.88;;
4466;SDS011;2246;42.664;23.278;2022-08-23T13:29:38;12.93;;;8.77;;
4466;SDS011;2246;42.664;23.278;2022-08-23T13:34:53;20.65;;;9.32;;
4466;SDS011;2246;42.664;23.278;2022-08-23T13:37:30;15.55;;;10.50;;
4466;SDS011;2246;42.664;23.278;2022-08-23T13:39:58;20.33;;;10.77;;
4466;SDS011;2246;42.664;23.278;2022-08-23T13:42:34;21.10;;;11.35;;
4466;SDS011;2246;42.664;23.278;2022-08-23T13:45:14;16.92;;;11.27;;
4466;SDS011;2246;42.664;23.278;2022-08-23T13:47:48;17.92;;;11.48;;
4466;SDS011;2246;42.664;23.278;2022-08-23T13:50:22;16.55;;;11.18;;
4466;SDS011;2246;42.664;23.278;2022-08-23T13:52:48;19.90;;;12.23;;
4466;SDS011;2246;42.664;23.278;2022-08-23T13:55:15;15.80;;;9.60;;
4466;SDS011;2246;42.664;23.278;2022-08-23T13:57:41;15.10;;;9.27;;
4466;SDS011;2246;42.664;23.278;2022-08-23T14:00:07;15.25;;;9.50;;
4466;SDS011;2246;42.664;23.278;2022-08-23T14:02:35;16.40;;;9.70;;
4466;SDS011;2246;42.664;23.278;2022-08-23T14:05:01;17.40;;;11.30;;
4466;SDS011;2246;42.664;23.278;2022-08-23T14:07:38;21.45;;;15.10;;
4466;SDS011;2246;42.664;23.278;2022-08-23T14:10:04;16.70;;;10.52;;
4466;SDS011;2246;42.664;23.278;2022-08-23T14:12:31;15.68;;;10.13;;
4466;SDS011;2246;42.664;23.278;2022-08-23T14:14:58;17.40;;;10.80;;
4466;SDS011;2246;42.664;23.278;2022-08-23T14:17:25;20.90;;;12.02;;
4466;SDS011;2246;42.664;23.278;2022-08-23T14:19:52;18.23;;;11.95;;
4466;SDS011;2246;42.664;23.278;2022-08-23T14:22:18;20.15;;;11.98;;
4466;SDS011;2246;42.664;23.278;2022-08-23T14:24:44;17.25;;;11.45;;
4466;SDS011;2246;42.664;23.278;2022-08-23T14:27:10;19.55;;;11.55;;
4466;SDS011;2246;42.664;23.278;2022-08-23T14:29:37;18.40;;;10.05;;
4466;SDS011;2246;42.664;23.278;2022-08-23T14:32:03;19.33;;;9.68;;
4466;SDS011;2246;42.664;23.278;2022-08-23T14:34:29;16.00;;;9.65;;
4466;SDS011;2246;42.664;23.278;2022-08-23T14:36:56;13.45;;;9.32;;
4466;SDS011;2246;42.664;23.278;2022-08-23T14:39:23;15.25;;;7.38;;
4466;SDS011;2246;42.664;23.278;2022-08-23T14:41:49;18.50;;;7.03;;
4466;SDS011;2246;42.664;23.278;2022-08-23T14:44:15;13.25;;;6.38;;
4466;SDS011;2246;42.664;23.278;2022-08-23T14:46:42;9.82;;;5.93;;
4466;SDS011;2246;42.664;23.278;2022-08-23T14:49:09;11.63;;;6.88;;
4466;SDS011;2246;42.664;23.278;2022-08-23T14:51:36;12.85;;;5.90;;
4466;SDS011;2246;42.664;23.278;2022-08-23T14:54:03;8.57;;;6.10;;
4466;SDS011;2246;42.664;23.278;2022-08-23T14:56:30;13.63;;;6.40;;
4466;SDS011;2246;42.664;23.278;2022-08-23T14:58:56;13.55;;;6.75;;
4466;SDS011;2246;42.664;23.278;2022-08-23T15:01:23;11.98;;;7.47;;
4466;SDS011;2246;42.664;23.278;2022-08-23T15:03:49;15.07;;;8.00;;
4466;SDS011;2246;42.664;23.278;2022-08-23T15:06:16;14.57;;;8.20;;
4466;SDS011;2246;42.664;23.278;2022-08-23T15:08:42;15.10;;;9.25;;
4466;SDS011;2246;42.664;23.278;2022-08-23T15:11:09;14.02;;;9.48;;
4466;SDS011;2246;42.664;23.278;2022-08-23T15:13:36;22.05;;;10.10;;
4466;SDS011;2246;42.664;23.278;2022-08-23T15:16:03;18.65;;;9.57;;
4466;SDS011;2246;42.664;23.278;2022-08-23T15:18:30;21.08;;;10.43;;
4466;SDS011;2246;42.664;23.278;2022-08-23T15:20:56;21.48;;;10.27;;
4466;SDS011;2246;42.664;23.278;2022-08-23T15:23:22;17.10;;;10.95;;
4466;SDS011;2246;42.664;23.278;2022-08-23T15:25:48;16.83;;;11.15;;
4466;SDS011;2246;42.664;23.278;2022-08-23T15:28:15;20.70;;;11.07;;
4466;SDS011;2246;42.664;23.278;2022-08-23T15:30:41;16.27;;;10.00;;
4466;SDS011;2246;42.664;23.278;2022-08-23T15:33:07;17.10;;;10.13;;
4466;SDS011;2246;42.664;23.278;2022-08-23T15:35:36;14.63;;;10.80;;
4466;SDS011;2246;42.664;23.278;2022-08-23T15:38:02;19.10;;;11.48;;
4466;SDS011;2246;42.664;23.278;2022-08-23T15:40:28;15.88;;;11.25;;
4466;SDS011;2246;42.664;23.278;2022-08-23T15:42:54;21.35;;;11.60;;
4466;SDS011;2246;42.664;23.278;2022-08-23T15:45:20;18.83;;;10.88;;
4466;SDS011;2246;42.664;23.278;2022-08-23T15:47:48;17.05;;;13.07;;
4466;SDS011;2246;42.664;23.278;2022-08-23T15:52:40;18.38;;;11.98;;
4466;SDS011;2246;42.664;23.278;2022-08-23T15:55:06;21.85;;;12.10;;
4466;SDS011;2246;42.664;23.278;2022-08-23T15:57:37;17.42;;;12.05;;
4466;SDS011;2246;42.664;23.278;2022-08-23T16:00:04;19.98;;;12.48;;
4466;SDS011;2246;42.664;23.278;2022-08-23T16:02:31;22.38;;;13.95;;
4466;SDS011;2246;42.664;23.278;2022-08-23T16:04:58;23.92;;;14.32;;
4466;SDS011;2246;42.664;23.278;2022-08-23T16:07:24;18.13;;;13.05;;
4466;SDS011;2246;42.664;23.278;2022-08-23T16:09:51;18.83;;;13.05;;
4466;SDS011;2246;42.664;23.278;2022-08-23T16:12:17;24.42;;;12.93;;
4466;SDS011;2246;42.664;23.278;2022-08-23T16:14:43;22.10;;;13.13;;
4466;SDS011;2246;42.664;23.278;2022-08-23T16:17:10;25.58;;;13.02;;
4466;SDS011;2246;42.664;23.278;2022-08-23T16:19:36;21.10;;;13.10;;
4466;SDS011;2246;42.664;23.278;2022-08-23T16:22:02;20.02;;;12.65;;
4466;SDS011;2246;42.664;23.278;2022-08-23T16:24:29;17.70;;;11.30;;
4466;SDS011;2246;42.664;23.278;2022-08-23T16:26:55;18.00;;;11.27;;
4466;SDS011;2246;42.664;23.278;2022-08-23T16:29:21;21.42;;;13.13;;
4466;SDS011;2246;42.664;23.278;2022-08-23T16:31:47;20.98;;;13.73;;
4466;SDS011;2246;42.664;23.278;2022-08-23T16:34:17;20.52;;;12.85;;
4466;SDS011;2246;42.664;23.278;2022-08-23T16:36:45;19.75;;;13.57;;